createdAt,value
2018-07-20T00:01:33.109Z,98572.69
2018-07-20T00:04:02.249Z,98569.66
2018-07-20T00:06:29.868Z,98569.92
2018-07-20T00:08:57.397Z,98569.23
2018-07-20T00:11:24.861Z,98563.03
2018-07-20T00:13:52.449Z,98563.83
2018-07-20T00:16:22.169Z,98561.89
2018-07-20T00:21:39.646Z,98555.35
2018-07-20T00:24:07.113Z,98552.28
2018-07-20T00:26:34.510Z,98543.84
2018-07-20T00:29:01.721Z,98548.42
2018-07-20T00:31:28.958Z,98550.28
2018-07-20T00:33:56.286Z,98550.25
2018-07-20T00:36:25.374Z,98548.00
2018-07-20T00:38:53.116Z,98543.16
2018-07-20T00:41:20.829Z,98544.73
2018-07-20T00:43:48.306Z,98545.33
2018-07-20T00:46:15.931Z,98533.06
2018-07-20T00:48:43.518Z,98532.34
2018-07-20T00:51:11.644Z,98538.48
2018-07-20T00:53:39.255Z,98530.00
2018-07-20T00:56:06.990Z,98526.67
2018-07-20T00:58:34.286Z,98525.56
2018-07-20T01:01:01.614Z,98525.33
2018-07-20T01:03:28.905Z,98525.03
2018-07-20T01:05:56.585Z,98521.89
2018-07-20T01:08:24.159Z,98528.22
2018-07-20T01:10:51.904Z,98522.66
2018-07-20T01:13:19.583Z,98519.33
2018-07-20T01:15:47.400Z,98519.09
2018-07-20T01:18:14.859Z,98515.66
2018-07-20T01:20:42.114Z,98515.39
2018-07-20T01:23:09.401Z,98514.63
2018-07-20T01:25:36.634Z,98512.52
2018-07-20T01:28:03.845Z,98513.14
2018-07-20T01:30:31.748Z,98514.93
2018-07-20T01:32:59.353Z,98511.49
2018-07-20T01:35:26.871Z,98509.31
2018-07-20T01:37:54.454Z,98503.86
2018-07-20T01:40:21.763Z,98502.80
2018-07-20T01:42:49.056Z,98506.92
2018-07-20T01:45:16.346Z,98503.84
2018-07-20T01:47:43.727Z,98507.58
2018-07-20T01:50:12.107Z,98509.20
2018-07-20T01:52:39.794Z,98499.75
2018-07-20T01:55:07.402Z,98505.38
2018-07-20T01:57:34.930Z,98505.84
2018-07-20T02:00:02.667Z,98506.30
2018-07-20T02:02:30.078Z,98506.59
2018-07-20T02:04:57.347Z,98503.45
2018-07-20T02:07:24.742Z,98500.41
2018-07-20T02:10:01.614Z,98495.86
2018-07-20T02:12:28.904Z,98494.73
2018-07-20T02:14:56.252Z,98494.36
2018-07-20T02:17:23.549Z,98497.92
2018-07-20T02:19:50.787Z,98499.58
2018-07-20T02:22:18.088Z,98505.12
2018-07-20T02:24:45.490Z,98496.42
2018-07-20T02:27:13.624Z,98500.33
2018-07-20T02:29:41.193Z,98500.60
2018-07-20T02:32:08.749Z,98496.52
2018-07-20T02:34:36.202Z,98496.86
2018-07-20T02:37:03.574Z,98496.18
2018-07-20T02:39:30.822Z,98498.72
2018-07-20T02:41:58.078Z,98495.45
2018-07-20T02:44:25.343Z,98487.56
2018-07-20T02:46:52.639Z,98491.98
2018-07-20T02:49:20.970Z,98479.02
2018-07-20T02:51:48.374Z,98484.39
2018-07-20T02:54:18.086Z,98482.59
2018-07-20T02:56:45.370Z,98482.53
2018-07-20T02:59:12.653Z,98479.16
2018-07-20T03:01:40.227Z,98481.48
2018-07-20T03:04:07.533Z,98478.23
2018-07-20T03:06:34.875Z,98478.56
2018-07-20T03:09:02.276Z,98476.67
2018-07-20T03:11:29.569Z,98488.84
2018-07-20T03:13:57.917Z,98490.27
2018-07-20T03:16:25.383Z,98491.05
2018-07-20T03:18:53.987Z,98493.05
2018-07-20T03:21:23.899Z,98485.97
2018-07-20T03:23:52.621Z,98492.25
2018-07-20T03:26:20.921Z,98488.41
2018-07-20T03:28:48.596Z,98492.56
2018-07-20T03:31:16.373Z,98481.20
2018-07-20T03:33:43.740Z,98486.42
2018-07-20T03:36:11.041Z,98482.87
2018-07-20T03:38:38.910Z,98478.77
2018-07-20T03:41:06.720Z,98486.11
2018-07-20T03:43:34.071Z,98482.02
2018-07-20T03:46:01.492Z,98478.28
2018-07-20T03:48:29.048Z,98480.41
2018-07-20T03:50:56.844Z,98479.31
2018-07-20T03:53:24.421Z,98475.81
2018-07-20T03:55:51.740Z,98469.34
2018-07-20T03:58:19.475Z,98465.83
2018-07-20T04:00:49.143Z,98468.78
2018-07-20T04:03:18.069Z,98471.58
2018-07-20T04:05:47.434Z,98471.18
2018-07-20T04:08:14.991Z,98471.88
2018-07-20T04:10:43.007Z,98463.35
2018-07-20T04:13:11.841Z,98459.08
2018-07-20T04:15:39.270Z,98466.50
2018-07-20T04:18:07.374Z,98458.62
2018-07-20T04:20:34.831Z,98467.36
2018-07-20T04:23:02.307Z,98465.80
2018-07-20T04:25:30.338Z,98464.36
2018-07-20T04:27:57.654Z,98466.24
2018-07-20T04:30:24.988Z,98466.70
2018-07-20T04:32:52.363Z,98467.36
2018-07-20T04:35:20.705Z,98462.80
2018-07-20T04:37:48.063Z,98467.20
2018-07-20T04:40:15.573Z,98455.52
2018-07-20T04:42:42.919Z,98458.23
2018-07-20T04:45:10.443Z,98460.56
2018-07-20T04:47:37.860Z,98458.67
2018-07-20T04:52:39.503Z,98457.84
2018-07-20T04:55:06.907Z,98455.42
2018-07-20T04:57:35.033Z,98452.98
2018-07-20T05:00:02.442Z,98455.14
2018-07-20T05:02:30.078Z,98458.11
2018-07-20T05:04:58.237Z,98452.75
2018-07-20T05:07:26.017Z,98437.37
2018-07-20T05:09:53.583Z,98445.48
2018-07-20T05:12:22.948Z,98441.43
2018-07-20T05:14:50.733Z,98442.31
2018-07-20T05:17:21.093Z,98434.38
2018-07-20T05:19:49.138Z,98441.47
2018-07-20T05:22:16.501Z,98434.81
2018-07-20T05:24:43.878Z,98438.02
2018-07-20T05:27:11.787Z,98433.50
2018-07-20T05:29:39.438Z,98430.36
2018-07-20T05:32:07.218Z,98434.34
2018-07-20T05:34:35.001Z,98433.23
2018-07-20T05:37:02.981Z,98429.20
2018-07-20T05:39:31.142Z,98429.96
2018-07-20T05:41:58.462Z,98424.45
2018-07-20T05:44:25.829Z,98417.86
2018-07-20T05:46:53.757Z,98426.41
2018-07-20T05:49:21.420Z,98414.59
2018-07-20T05:51:49.506Z,98420.05
2018-07-20T05:54:17.218Z,98421.94
2018-07-20T05:56:45.016Z,98419.63
2018-07-20T05:59:12.580Z,98423.91
2018-07-20T06:01:40.072Z,98422.30
2018-07-20T06:04:07.453Z,98417.52
2018-07-20T06:06:34.736Z,98418.48
2018-07-20T06:09:02.072Z,98419.42
2018-07-20T06:11:30.035Z,98421.72
2018-07-20T06:13:57.987Z,98419.57
2018-07-20T06:16:25.655Z,98421.48
2018-07-20T06:18:53.046Z,98413.56
2018-07-20T06:21:20.462Z,98416.77
2018-07-20T06:23:47.910Z,98417.83
2018-07-20T06:26:16.122Z,98416.30
2018-07-20T06:28:43.836Z,98422.80
2018-07-20T06:31:11.517Z,98418.69
2018-07-20T06:33:39.225Z,98411.75
2018-07-20T06:36:06.679Z,98410.63
2018-07-20T06:38:34.026Z,98413.63
2018-07-20T06:41:01.625Z,98413.00
2018-07-20T06:43:29.549Z,98403.77
2018-07-20T06:45:57.500Z,98407.67
2018-07-20T06:48:25.637Z,98401.52
2018-07-20T06:51:02.559Z,98408.39
2018-07-20T06:53:39.031Z,98398.95
2018-07-20T06:56:06.409Z,98402.41
2018-07-20T06:58:33.806Z,98406.34
2018-07-20T07:01:01.146Z,98407.14
2018-07-20T07:03:28.455Z,98405.45
2018-07-20T07:05:56.382Z,98408.50
2018-07-20T07:08:24.722Z,98402.94
2018-07-20T07:10:52.451Z,98407.34
2018-07-20T07:13:21.438Z,98405.58
2018-07-20T07:15:48.806Z,98407.09
2018-07-20T07:18:16.115Z,98403.81
2018-07-20T07:20:43.486Z,98397.16
2018-07-20T07:23:11.155Z,98402.50
2018-07-20T07:25:38.835Z,98398.88
2018-07-20T07:28:06.197Z,98393.13
2018-07-20T07:30:33.555Z,98391.22
2018-07-20T07:33:00.900Z,98394.69
2018-07-20T07:35:28.243Z,98395.90
2018-07-20T07:37:56.015Z,98389.53
2018-07-20T07:40:23.492Z,98392.36
2018-07-20T07:42:52.002Z,98391.66
2018-07-20T07:45:19.921Z,98391.94
2018-07-20T07:47:47.323Z,98391.36
2018-07-20T07:50:14.681Z,98392.86
2018-07-20T07:52:42.381Z,98390.19
2018-07-20T07:55:09.706Z,98391.63
2018-07-20T07:57:37.022Z,98388.61
2018-07-20T08:00:04.878Z,98385.19
2018-07-20T08:02:32.212Z,98386.99
2018-07-20T08:05:00.051Z,98384.30
2018-07-20T08:07:27.327Z,98379.06
2018-07-20T08:09:54.784Z,98373.42
2018-07-20T08:12:22.037Z,98378.75
2018-07-20T08:14:49.343Z,98380.72
2018-07-20T08:17:16.668Z,98380.27
2018-07-20T08:19:44.321Z,98375.16
2018-07-20T08:22:11.616Z,98373.37
2018-07-20T08:24:38.965Z,98372.98
2018-07-20T08:27:06.375Z,98378.23
2018-07-20T08:29:33.616Z,98377.87
2018-07-20T08:32:01.492Z,98371.09
2018-07-20T08:34:29.509Z,98376.58
2018-07-20T08:36:57.082Z,98370.75
2018-07-20T08:39:25.011Z,98372.61
2018-07-20T08:41:52.352Z,98361.77
2018-07-20T08:44:21.918Z,98368.72
2018-07-20T08:46:49.355Z,98375.52
2018-07-20T08:49:16.699Z,98361.55
2018-07-20T08:51:44.008Z,98360.48
2018-07-20T08:54:11.345Z,98361.75
2018-07-20T08:56:38.707Z,98359.36
2018-07-20T08:59:06.340Z,98354.28
2018-07-20T09:01:33.620Z,98360.05
2018-07-20T09:04:00.941Z,98352.41
2018-07-20T09:06:28.465Z,98350.53
2018-07-20T09:08:56.516Z,98352.42
2018-07-20T09:11:23.878Z,98346.20
2018-07-20T09:13:51.344Z,98337.72
2018-07-20T09:16:19.352Z,98341.94
2018-07-20T09:18:47.052Z,98333.13
2018-07-20T09:21:14.746Z,98341.50
2018-07-20T09:23:42.039Z,98339.80
2018-07-20T09:26:09.754Z,98334.83
2018-07-20T09:28:37.477Z,98323.77
2018-07-20T09:31:04.859Z,98322.30
2018-07-20T09:33:32.178Z,98316.22
2018-07-20T09:35:59.494Z,98321.04
2018-07-20T09:38:28.026Z,98320.35
2018-07-20T09:40:56.158Z,98318.64
2018-07-20T09:43:23.651Z,98319.08
2018-07-20T09:45:51.557Z,98317.27
2018-07-20T09:48:20.020Z,98318.98
2018-07-20T09:50:47.547Z,98313.74
2018-07-20T09:53:15.056Z,98305.64
2018-07-20T09:55:42.480Z,98313.05
2018-07-20T09:58:10.015Z,98303.20
2018-07-20T10:00:42.100Z,98300.59
2018-07-20T10:03:09.554Z,98297.87
2018-07-20T10:05:37.976Z,98301.84
2018-07-20T10:08:05.516Z,98295.36
2018-07-20T10:10:33.636Z,98296.44
2018-07-20T10:13:01.640Z,98294.53
2018-07-20T10:15:29.006Z,98292.94
2018-07-20T10:17:57.093Z,98293.46
2018-07-20T10:20:24.426Z,98294.20
2018-07-20T10:22:52.361Z,98286.30
2018-07-20T10:25:20.323Z,98284.77
2018-07-20T10:27:47.648Z,98290.09
2018-07-20T10:30:15.595Z,98282.05
2018-07-20T10:32:43.048Z,98281.81
2018-07-20T10:35:10.517Z,98276.09
2018-07-20T10:37:37.891Z,98280.15
2018-07-20T10:40:05.368Z,98274.95
2018-07-20T10:42:32.668Z,98276.11
2018-07-20T10:45:00.019Z,98274.50
2018-07-20T10:47:33.970Z,98272.47
2018-07-20T10:50:01.466Z,98267.20
2018-07-20T10:52:28.913Z,98269.05
2018-07-20T10:54:56.258Z,98273.92
2018-07-20T10:57:24.362Z,98271.16
2018-07-20T10:59:51.767Z,98270.89
2018-07-20T11:02:19.745Z,98261.02
2018-07-20T11:04:47.664Z,98261.28
2018-07-20T11:07:15.027Z,98266.04
2018-07-20T11:09:42.722Z,98265.58
2018-07-20T11:12:10.073Z,98255.45
2018-07-20T11:14:37.350Z,98253.59
2018-07-20T11:17:04.920Z,98250.25
2018-07-20T11:19:32.269Z,98247.92
2018-07-20T11:22:00.124Z,98247.75
2018-07-20T11:24:28.301Z,98245.70
2018-07-20T11:26:55.681Z,98240.09
2018-07-20T11:29:23.006Z,98244.00
2018-07-20T11:31:50.338Z,98246.28
2018-07-20T11:34:17.669Z,98244.53
2018-07-20T11:36:45.020Z,98235.04
2018-07-20T11:39:12.395Z,98228.48
2018-07-20T11:41:39.811Z,98223.20
2018-07-20T11:44:07.480Z,98231.41
2018-07-20T11:46:34.866Z,98228.16
2018-07-20T11:49:02.194Z,98224.34
2018-07-20T11:51:29.542Z,98232.99
2018-07-20T11:53:56.940Z,98221.41
2018-07-20T11:56:24.479Z,98209.50
2018-07-20T11:58:51.796Z,98212.06
2018-07-20T12:01:19.896Z,98210.66
2018-07-20T12:03:49.203Z,98205.39
2018-07-20T12:06:16.613Z,98204.66
2018-07-20T12:08:43.977Z,98208.34
2018-07-20T12:11:11.592Z,98195.34
2018-07-20T12:13:38.978Z,98200.30
2018-07-20T12:16:06.478Z,98198.92
2018-07-20T12:18:33.855Z,98182.42
2018-07-20T12:21:01.763Z,98183.88
2018-07-20T12:23:29.124Z,98179.36
2018-07-20T12:25:57.562Z,98177.05
2018-07-20T12:28:24.903Z,98180.45
2018-07-20T12:30:52.781Z,98174.09
2018-07-20T12:33:20.227Z,98170.75
2018-07-20T12:35:47.545Z,98170.97
2018-07-20T12:38:14.874Z,98170.70
2018-07-20T12:40:42.239Z,98171.00
2018-07-20T12:43:09.600Z,98172.64
2018-07-20T12:45:36.956Z,98164.02
2018-07-20T12:48:04.437Z,98160.91
2018-07-20T12:50:31.817Z,98154.88
2018-07-20T12:53:00.228Z,98145.38
2018-07-20T12:55:27.921Z,98150.97
2018-07-20T12:57:55.273Z,98135.19
2018-07-20T13:00:34.269Z,98141.97
2018-07-20T13:03:13.093Z,98138.25
2018-07-20T13:05:55.714Z,98141.55
2018-07-20T13:08:26.454Z,98142.81
2018-07-20T13:10:59.268Z,98135.45
2018-07-20T13:13:28.339Z,98133.75
2018-07-20T13:16:02.235Z,98132.45
2018-07-20T13:18:35.231Z,98136.52
2018-07-20T13:21:07.142Z,98128.31
2018-07-20T13:23:42.507Z,98127.20
2018-07-20T13:26:20.024Z,98130.16
2018-07-20T13:28:49.790Z,98121.64
2018-07-20T13:31:17.341Z,98124.25
2018-07-20T13:33:44.710Z,98119.00
2018-07-20T13:36:12.019Z,98109.74
2018-07-20T13:38:39.444Z,98114.12
2018-07-20T13:41:06.799Z,98109.04
2018-07-20T13:43:34.124Z,98109.25
2018-07-20T13:46:01.616Z,98108.23
2018-07-20T13:48:29.009Z,98102.13
2018-07-20T13:51:04.027Z,98102.54
2018-07-20T13:53:31.880Z,98098.45
2018-07-20T13:55:59.412Z,98094.16
2018-07-20T13:58:27.257Z,98090.39
2018-07-20T14:00:55.855Z,98089.75
2018-07-20T14:03:23.679Z,98091.86
2018-07-20T14:05:51.494Z,98080.33
2018-07-20T14:08:20.136Z,98087.91
2018-07-20T14:10:47.536Z,98083.35
2018-07-20T14:13:14.882Z,98087.13
2018-07-20T14:15:42.831Z,98071.38
2018-07-20T14:18:11.001Z,98080.00
2018-07-20T14:20:38.763Z,98073.34
2018-07-20T14:23:06.920Z,98070.47
2018-07-20T14:25:34.210Z,98071.24
2018-07-20T14:28:01.524Z,98070.63
2018-07-20T14:30:28.906Z,98064.97
2018-07-20T14:32:56.312Z,98063.09
2018-07-20T14:35:23.627Z,98063.80
2018-07-20T14:38:13.770Z,98057.37
2018-07-20T14:40:41.146Z,98054.22
2018-07-20T14:43:08.451Z,98051.36
2018-07-20T14:45:35.817Z,98049.66
2018-07-20T14:48:03.958Z,98054.71
2018-07-20T14:50:31.371Z,98045.31
2018-07-20T14:52:58.911Z,98041.24
2018-07-20T14:55:26.811Z,98036.06
2018-07-20T14:57:54.320Z,98033.78
2018-07-20T15:00:21.709Z,98042.33
2018-07-20T15:02:49.465Z,98038.44
2018-07-20T15:05:16.860Z,98028.97
2018-07-20T15:07:44.234Z,98030.80
2018-07-20T15:10:11.782Z,98035.20
2018-07-20T15:12:39.363Z,98022.96
2018-07-20T15:15:07.689Z,98033.05
2018-07-20T15:17:37.360Z,98028.69
2018-07-20T15:20:06.903Z,98024.98
2018-07-20T15:22:34.754Z,98021.78
2018-07-20T15:25:02.852Z,98018.86
2018-07-20T15:27:30.712Z,98014.16
2018-07-20T15:29:58.749Z,98013.94
2018-07-20T15:32:26.057Z,98023.21
2018-07-20T15:34:55.578Z,98020.49
2018-07-20T15:37:23.043Z,98021.64
2018-07-20T15:39:50.336Z,98016.91
2018-07-20T15:42:17.691Z,98005.05
2018-07-20T15:44:45.084Z,98014.83
2018-07-20T15:47:12.584Z,98010.25
2018-07-20T15:49:40.003Z,98017.52
2018-07-20T15:54:35.664Z,98022.12
2018-07-20T15:57:03.227Z,98017.70
2018-07-20T15:59:30.821Z,98013.81
2018-07-20T16:01:58.359Z,98010.58
2018-07-20T16:04:25.812Z,98018.38
2018-07-20T16:06:53.243Z,98021.61
2018-07-20T16:09:22.778Z,98024.14
2018-07-20T16:11:50.257Z,98016.51
2018-07-20T16:14:17.558Z,98010.92
2018-07-20T16:16:45.448Z,98017.69
2018-07-20T16:19:12.936Z,98010.92
2018-07-20T16:21:40.244Z,98008.36
2018-07-20T16:24:08.180Z,98010.23
2018-07-20T16:26:35.556Z,98003.14
2018-07-20T16:29:02.864Z,98006.84
2018-07-20T16:31:30.194Z,98001.28
2018-07-20T16:33:57.490Z,98000.92
2018-07-20T16:36:24.854Z,97992.26
2018-07-20T16:38:52.191Z,97998.72
2018-07-20T16:41:23.043Z,97994.00
2018-07-20T16:43:50.426Z,97987.39
2018-07-20T16:46:17.901Z,97992.47
2018-07-20T16:48:45.862Z,97990.61
2018-07-20T16:51:13.548Z,97985.02
2018-07-20T16:53:41.061Z,97986.89
2018-07-20T16:56:09.154Z,97979.25
2018-07-20T16:58:36.513Z,97979.77
2018-07-20T17:01:04.032Z,97980.45
2018-07-20T17:03:31.713Z,97977.37
2018-07-20T17:06:00.068Z,97974.28
2018-07-20T17:08:28.581Z,97975.63
2018-07-20T17:10:56.685Z,97968.86
2018-07-20T17:13:25.116Z,97971.41
2018-07-20T17:15:52.633Z,97976.64
2018-07-20T17:18:20.021Z,97971.20
2018-07-20T17:20:47.360Z,97976.97
2018-07-20T17:23:14.744Z,97969.36
2018-07-20T17:25:42.073Z,97981.72
2018-07-20T17:28:09.414Z,97982.53
2018-07-20T17:30:36.751Z,97981.59
2018-07-20T17:33:04.903Z,97980.39
2018-07-20T17:35:32.691Z,97980.05
2018-07-20T17:38:00.050Z,97977.34
2018-07-20T17:40:27.411Z,97977.81
2018-07-20T17:42:55.856Z,97966.30
2018-07-20T17:45:23.161Z,97966.59
2018-07-20T17:47:50.480Z,97971.16
2018-07-20T17:50:18.247Z,97976.70
2018-07-20T17:52:46.317Z,97971.63
2018-07-20T17:55:13.919Z,97963.69
2018-07-20T17:57:41.620Z,97969.26
2018-07-20T18:00:09.135Z,97972.94
2018-07-20T18:02:36.666Z,97976.28
2018-07-20T18:05:04.275Z,97968.77
2018-07-20T18:07:31.937Z,97976.53
2018-07-20T18:09:59.283Z,97979.70
2018-07-20T18:12:27.360Z,97979.19
2018-07-20T18:14:55.437Z,97978.16
2018-07-20T18:17:22.759Z,97976.94
2018-07-20T18:19:50.068Z,97970.00
2018-07-20T18:22:17.441Z,97971.65
2018-07-20T18:24:44.736Z,97975.98
2018-07-20T18:27:12.178Z,97976.92
2018-07-20T18:29:39.637Z,97976.20
2018-07-20T18:32:06.998Z,97972.32
2018-07-20T18:34:36.033Z,97973.87
2018-07-20T18:37:05.334Z,97980.38
2018-07-20T18:39:32.681Z,97973.19
2018-07-20T18:42:00.107Z,97978.60
2018-07-20T18:44:29.050Z,97976.36
2018-07-20T18:46:56.591Z,97981.15
2018-07-20T18:49:23.874Z,97984.84
2018-07-20T18:51:51.200Z,97982.58
2018-07-20T18:54:19.987Z,97982.66
2018-07-20T18:56:47.237Z,97977.56
2018-07-20T18:59:14.467Z,97987.37
2018-07-20T19:01:41.807Z,97982.19
2018-07-20T19:04:09.122Z,97988.50
2018-07-20T19:06:36.460Z,97992.61
2018-07-20T19:09:06.094Z,97989.06
2018-07-20T19:11:34.448Z,97984.24
2018-07-20T19:14:02.046Z,97987.78
2018-07-20T19:16:30.038Z,97991.45
2018-07-20T19:18:58.205Z,97993.45
2018-07-20T19:21:26.570Z,97992.30
2018-07-20T19:23:54.125Z,97990.81
2018-07-20T19:26:22.196Z,97998.92
2018-07-20T19:28:50.858Z,97991.69
2018-07-20T19:31:20.722Z,97994.00
2018-07-20T19:33:49.901Z,97991.81
2018-07-20T19:36:18.977Z,97994.83
2018-07-20T19:38:47.070Z,97996.20
2018-07-20T19:41:14.487Z,97996.72
2018-07-20T19:43:41.898Z,98004.41
2018-07-20T19:46:09.903Z,98003.11
2018-07-20T19:48:37.366Z,97997.90
2018-07-20T19:51:05.309Z,98003.71
2018-07-20T19:53:33.652Z,98006.81
2018-07-20T19:56:02.161Z,98010.07
2018-07-20T19:58:30.312Z,98015.66
2018-07-20T20:00:57.889Z,98016.12
2018-07-20T20:03:28.959Z,98025.88
2018-07-20T20:05:56.980Z,98023.92
2018-07-20T20:08:24.720Z,98026.75
2018-07-20T20:10:52.672Z,98023.71
2018-07-20T20:13:20.167Z,98022.03
2018-07-20T20:15:47.904Z,98020.84
2018-07-20T20:18:26.679Z,98022.17
2018-07-20T20:21:02.922Z,98023.17
2018-07-20T20:23:39.481Z,98023.67
2018-07-20T20:26:07.755Z,98019.09
2018-07-20T20:28:35.533Z,98012.98
2018-07-20T20:31:03.937Z,98013.97
2018-07-20T20:33:31.708Z,98014.21
2018-07-20T20:35:59.283Z,98008.62
2018-07-20T20:38:26.769Z,98013.16
2018-07-20T20:40:54.388Z,98015.48
2018-07-20T20:43:21.817Z,98012.84
2018-07-20T20:45:49.216Z,98002.33
2018-07-20T20:48:16.589Z,98003.05
2018-07-20T20:50:44.374Z,97997.82
2018-07-20T20:53:12.559Z,97998.04
2018-07-20T20:55:40.874Z,98003.05
2018-07-20T20:58:08.252Z,97992.68
2018-07-20T21:00:35.686Z,97990.63
2018-07-20T21:03:03.127Z,97990.27
2018-07-20T21:05:30.393Z,97983.70
2018-07-20T21:07:57.681Z,97998.46
2018-07-20T21:10:25.010Z,97995.78
2018-07-20T21:12:52.359Z,97990.92
2018-07-20T21:15:19.649Z,97992.88
2018-07-20T21:17:46.929Z,98001.42
2018-07-20T21:20:14.219Z,98001.34
2018-07-20T21:22:41.521Z,98002.91
2018-07-20T21:25:08.781Z,98001.84
2018-07-20T21:27:36.006Z,97999.78
2018-07-20T21:30:04.154Z,98001.52
2018-07-20T21:32:31.462Z,97998.94
2018-07-20T21:34:59.102Z,98000.77
2018-07-20T21:37:26.469Z,98002.47
2018-07-20T21:39:53.859Z,98010.18
2018-07-20T21:42:21.314Z,98002.01
2018-07-20T21:44:48.752Z,98003.34
2018-07-20T21:47:16.151Z,98010.78
2018-07-20T21:49:43.850Z,98008.23
2018-07-20T21:52:11.415Z,98017.35
2018-07-20T21:54:38.688Z,98013.59
2018-07-20T21:57:06.011Z,98010.31
2018-07-20T21:59:33.247Z,98016.63
2018-07-20T22:02:00.582Z,98011.90
2018-07-20T22:04:27.837Z,98015.90
2018-07-20T22:06:55.164Z,98020.64
2018-07-20T22:09:22.520Z,98022.11
2018-07-20T22:11:49.850Z,98028.42
2018-07-20T22:14:17.271Z,98029.02
2018-07-20T22:16:45.199Z,98025.20
2018-07-20T22:19:12.588Z,98022.17
2018-07-20T22:21:39.994Z,98024.00
2018-07-20T22:24:07.359Z,98022.41
2018-07-20T22:26:34.611Z,98029.44
2018-07-20T22:29:01.881Z,98025.19
2018-07-20T22:31:29.127Z,98021.88
2018-07-20T22:33:56.414Z,98020.90
2018-07-20T22:36:24.593Z,98025.16
2018-07-20T22:38:51.840Z,98027.44
2018-07-20T22:41:19.098Z,98025.50
2018-07-20T22:43:46.743Z,98025.03
2018-07-20T22:46:13.988Z,98021.66
2018-07-20T22:48:41.262Z,98025.94
2018-07-20T22:51:08.503Z,98033.09
2018-07-20T22:53:35.760Z,98030.30
2018-07-20T22:56:03.014Z,98031.06
2018-07-20T22:58:30.272Z,98028.72
2018-07-20T23:00:57.560Z,98026.53
2018-07-20T23:03:24.791Z,98036.02
2018-07-20T23:05:52.046Z,98037.36
2018-07-20T23:08:20.301Z,98025.08
2018-07-20T23:10:48.165Z,98025.40
2018-07-20T23:13:15.511Z,98032.77
2018-07-20T23:15:43.011Z,98030.97
2018-07-20T23:18:10.419Z,98021.38
2018-07-20T23:20:38.241Z,98030.41
2018-07-20T23:23:05.550Z,98023.52
2018-07-20T23:25:32.971Z,98029.17
2018-07-20T23:28:00.540Z,98027.52
2018-07-20T23:30:27.875Z,98027.21
2018-07-20T23:32:55.207Z,98034.16
2018-07-20T23:35:22.515Z,98024.47
2018-07-20T23:37:49.763Z,98023.61
2018-07-20T23:40:17.120Z,98024.33
2018-07-20T23:42:44.339Z,98021.54
2018-07-20T23:45:11.618Z,98023.95
2018-07-20T23:47:38.851Z,98019.58
2018-07-20T23:50:06.138Z,98013.36
2018-07-20T23:52:33.385Z,98010.73
2018-07-20T23:55:00.662Z,98011.00
2018-07-20T23:57:27.925Z,98008.31
2018-07-20T23:59:55.217Z,98012.24
